sensor_id;sensor_type;location;lat;lon;timestamp;P1;durP1;ratioP1;P2;durP2;ratioP2
70457;SDS011;57919;56.194;95.716;2023-07-09T00:02:23;21.90;;;13.80;;
70457;SDS011;57919;56.194;95.716;2023-07-09T00:12:27;12.87;;;9.57;;
70457;SDS011;57919;56.194;95.716;2023-07-09T00:22:29;11.07;;;6.93;;
70457;SDS011;57919;56.194;95.716;2023-07-09T00:32:32;10.90;;;6.07;;
70457;SDS011;57919;56.194;95.716;2023-07-09T00:42:45;17.42;;;8.68;;
70457;SDS011;57919;56.194;95.716;2023-07-09T00:52:50;10.50;;;6.77;;
70457;SDS011;57919;56.194;95.716;2023-07-09T01:02:55;21.20;;;9.63;;
70457;SDS011;57919;56.194;95.716;2023-07-09T01:12:59;13.80;;;10.20;;
70457;SDS011;57919;56.194;95.716;2023-07-09T01:23:01;17.10;;;12.43;;
70457;SDS011;57919;56.194;95.716;2023-07-09T01:33:03;21.38;;;15.82;;
70457;SDS011;57919;56.194;95.716;2023-07-09T01:43:09;25.73;;;16.03;;
70457;SDS011;57919;56.194;95.716;2023-07-09T01:53:11;27.77;;;16.50;;
70457;SDS011;57919;56.194;95.716;2023-07-09T02:03:16;29.07;;;20.53;;
70457;SDS011;57919;56.194;95.716;2023-07-09T02:13:19;20.73;;;15.67;;
70457;SDS011;57919;56.194;95.716;2023-07-09T02:23:23;19.50;;;14.90;;
70457;SDS011;57919;56.194;95.716;2023-07-09T02:33:28;18.63;;;13.77;;
70457;SDS011;57919;56.194;95.716;2023-07-09T02:43:35;20.30;;;14.80;;
70457;SDS011;57919;56.194;95.716;2023-07-09T02:53:37;18.50;;;13.33;;
70457;SDS011;57919;56.194;95.716;2023-07-09T03:03:39;18.60;;;15.23;;
70457;SDS011;57919;56.194;95.716;2023-07-09T03:13:42;20.02;;;15.77;;
70457;SDS011;57919;56.194;95.716;2023-07-09T03:23:45;22.60;;;17.63;;
70457;SDS011;57919;56.194;95.716;2023-07-09T03:33:47;20.90;;;15.83;;
70457;SDS011;57919;56.194;95.716;2023-07-09T03:43:50;23.50;;;16.63;;
70457;SDS011;57919;56.194;95.716;2023-07-09T03:53:54;22.67;;;16.67;;
70457;SDS011;57919;56.194;95.716;2023-07-09T04:03:55;23.23;;;17.75;;
70457;SDS011;57919;56.194;95.716;2023-07-09T04:13:57;19.83;;;14.30;;
70457;SDS011;57919;56.194;95.716;2023-07-09T04:23:59;25.43;;;14.53;;
70457;SDS011;57919;56.194;95.716;2023-07-09T04:34:02;21.10;;;12.90;;
70457;SDS011;57919;56.194;95.716;2023-07-09T04:44:04;17.30;;;12.67;;
70457;SDS011;57919;56.194;95.716;2023-07-09T04:54:06;19.13;;;13.52;;
70457;SDS011;57919;56.194;95.716;2023-07-09T05:04:08;20.73;;;13.63;;
70457;SDS011;57919;56.194;95.716;2023-07-09T05:14:10;15.47;;;10.67;;
70457;SDS011;57919;56.194;95.716;2023-07-09T05:24:12;14.20;;;10.37;;
70457;SDS011;57919;56.194;95.716;2023-07-09T05:34:14;21.67;;;11.47;;
70457;SDS011;57919;56.194;95.716;2023-07-09T05:44:16;12.30;;;8.82;;
70457;SDS011;57919;56.194;95.716;2023-07-09T05:54:18;12.77;;;8.43;;
70457;SDS011;57919;56.194;95.716;2023-07-09T06:04:20;17.30;;;10.00;;
70457;SDS011;57919;56.194;95.716;2023-07-09T06:14:22;19.37;;;12.13;;
70457;SDS011;57919;56.194;95.716;2023-07-09T06:24:25;33.90;;;17.60;;
70457;SDS011;57919;56.194;95.716;2023-07-09T06:34:27;21.83;;;12.60;;
70457;SDS011;57919;56.194;95.716;2023-07-09T06:44:29;18.77;;;12.57;;
70457;SDS011;57919;56.194;95.716;2023-07-09T06:54:31;24.73;;;15.13;;
70457;SDS011;57919;56.194;95.716;2023-07-09T07:04:33;17.30;;;12.50;;
70457;SDS011;57919;56.194;95.716;2023-07-09T07:14:34;15.43;;;11.57;;
70457;SDS011;57919;56.194;95.716;2023-07-09T07:24:36;15.32;;;9.55;;
70457;SDS011;57919;56.194;95.716;2023-07-09T07:34:38;17.30;;;13.13;;
70457;SDS011;57919;56.194;95.716;2023-07-09T07:44:40;15.70;;;9.33;;
70457;SDS011;57919;56.194;95.716;2023-07-09T07:54:42;13.93;;;10.33;;
70457;SDS011;57919;56.194;95.716;2023-07-09T08:04:44;11.73;;;6.20;;
70457;SDS011;57919;56.194;95.716;2023-07-09T08:14:46;21.90;;;6.07;;
70457;SDS011;57919;56.194;95.716;2023-07-09T08:24:48;11.47;;;4.70;;
70457;SDS011;57919;56.194;95.716;2023-07-09T08:34:51;9.80;;;5.07;;
70457;SDS011;57919;56.194;95.716;2023-07-09T08:55:27;10.00;;;6.60;;
70457;SDS011;57919;56.194;95.716;2023-07-09T09:05:31;11.68;;;5.07;;
70457;SDS011;57919;56.194;95.716;2023-07-09T09:15:44;11.97;;;5.93;;
70457;SDS011;57919;56.194;95.716;2023-07-09T09:25:50;25.27;;;12.73;;
70457;SDS011;57919;56.194;95.716;2023-07-09T09:36:01;10.10;;;4.07;;
70457;SDS011;57919;56.194;95.716;2023-07-09T09:46:06;7.37;;;3.77;;
70457;SDS011;57919;56.194;95.716;2023-07-09T09:56:11;9.40;;;4.82;;
70457;SDS011;57919;56.194;95.716;2023-07-09T10:06:19;12.03;;;6.50;;
70457;SDS011;57919;56.194;95.716;2023-07-09T10:27:01;12.87;;;7.97;;
70457;SDS011;57919;56.194;95.716;2023-07-09T10:37:28;13.13;;;8.53;;
70457;SDS011;57919;56.194;95.716;2023-07-09T10:47:43;12.50;;;8.45;;
70457;SDS011;57919;56.194;95.716;2023-07-09T11:08:11;14.43;;;9.70;;
70457;SDS011;57919;56.194;95.716;2023-07-09T11:18:18;16.10;;;10.53;;
70457;SDS011;57919;56.194;95.716;2023-07-09T11:28:32;15.07;;;8.63;;
70457;SDS011;57919;56.194;95.716;2023-07-09T11:38:41;13.93;;;9.00;;
70457;SDS011;57919;56.194;95.716;2023-07-09T11:48:46;15.87;;;8.70;;
70457;SDS011;57919;56.194;95.716;2023-07-09T11:58:57;16.77;;;10.47;;
70457;SDS011;57919;56.194;95.716;2023-07-09T12:08:59;12.50;;;9.07;;
70457;SDS011;57919;56.194;95.716;2023-07-09T12:19:02;16.20;;;9.67;;
70457;SDS011;57919;56.194;95.716;2023-07-09T12:29:04;13.38;;;9.50;;
70457;SDS011;57919;56.194;95.716;2023-07-09T12:39:09;16.70;;;11.60;;
70457;SDS011;57919;56.194;95.716;2023-07-09T12:49:23;20.50;;;13.67;;
70457;SDS011;57919;56.194;95.716;2023-07-09T12:59:37;19.67;;;13.70;;
70457;SDS011;57919;56.194;95.716;2023-07-09T13:09:47;22.53;;;17.03;;
70457;SDS011;57919;56.194;95.716;2023-07-09T13:19:50;21.17;;;16.25;;
70457;SDS011;57919;56.194;95.716;2023-07-09T13:29:52;29.17;;;18.17;;
70457;SDS011;57919;56.194;95.716;2023-07-09T13:39:54;26.43;;;18.43;;
70457;SDS011;57919;56.194;95.716;2023-07-09T13:49:56;34.27;;;21.83;;
70457;SDS011;57919;56.194;95.716;2023-07-09T13:59:58;46.40;;;27.50;;
70457;SDS011;57919;56.194;95.716;2023-07-09T14:10:01;42.47;;;27.10;;
70457;SDS011;57919;56.194;95.716;2023-07-09T14:20:08;23.97;;;16.37;;
70457;SDS011;57919;56.194;95.716;2023-07-09T14:30:31;52.60;;;36.47;;
70457;SDS011;57919;56.194;95.716;2023-07-09T14:40:33;45.63;;;32.50;;
70457;SDS011;57919;56.194;95.716;2023-07-09T14:50:35;22.20;;;15.30;;
70457;SDS011;57919;56.194;95.716;2023-07-09T15:00:37;22.88;;;15.25;;
70457;SDS011;57919;56.194;95.716;2023-07-09T15:10:41;24.57;;;17.20;;
70457;SDS011;57919;56.194;95.716;2023-07-09T15:20:49;30.40;;;16.77;;
70457;SDS011;57919;56.194;95.716;2023-07-09T15:30:52;28.90;;;19.20;;
70457;SDS011;57919;56.194;95.716;2023-07-09T15:40:55;26.60;;;17.10;;
70457;SDS011;57919;56.194;95.716;2023-07-09T15:50:57;25.67;;;16.17;;
70457;SDS011;57919;56.194;95.716;2023-07-09T16:00:59;23.00;;;15.43;;
70457;SDS011;57919;56.194;95.716;2023-07-09T16:11:03;21.23;;;15.13;;
70457;SDS011;57919;56.194;95.716;2023-07-09T16:31:26;22.97;;;13.87;;
70457;SDS011;57919;56.194;95.716;2023-07-09T16:41:28;23.13;;;13.43;;
70457;SDS011;57919;56.194;95.716;2023-07-09T16:51:29;19.77;;;13.50;;
70457;SDS011;57919;56.194;95.716;2023-07-09T17:01:31;22.33;;;13.97;;
70457;SDS011;57919;56.194;95.716;2023-07-09T17:11:35;19.97;;;14.27;;
70457;SDS011;57919;56.194;95.716;2023-07-09T17:21:37;20.47;;;13.90;;
70457;SDS011;57919;56.194;95.716;2023-07-09T17:31:43;23.10;;;13.98;;
70457;SDS011;57919;56.194;95.716;2023-07-09T17:41:50;18.00;;;13.40;;
70457;SDS011;57919;56.194;95.716;2023-07-09T17:51:53;20.77;;;13.10;;
70457;SDS011;57919;56.194;95.716;2023-07-09T18:02:09;22.87;;;13.53;;
70457;SDS011;57919;56.194;95.716;2023-07-09T18:12:19;21.47;;;14.20;;
70457;SDS011;57919;56.194;95.716;2023-07-09T18:22:24;23.20;;;13.77;;
70457;SDS011;57919;56.194;95.716;2023-07-09T18:32:29;20.47;;;13.53;;
70457;SDS011;57919;56.194;95.716;2023-07-09T18:42:31;21.13;;;13.73;;
70457;SDS011;57919;56.194;95.716;2023-07-09T18:52:33;22.63;;;14.23;;
70457;SDS011;57919;56.194;95.716;2023-07-09T19:02:35;24.07;;;14.93;;
70457;SDS011;57919;56.194;95.716;2023-07-09T19:12:38;20.75;;;12.90;;
70457;SDS011;57919;56.194;95.716;2023-07-09T19:22:41;18.27;;;11.80;;
70457;SDS011;57919;56.194;95.716;2023-07-09T19:32:50;60.77;;;13.17;;
70457;SDS011;57919;56.194;95.716;2023-07-09T19:42:58;19.77;;;12.00;;
70457;SDS011;57919;56.194;95.716;2023-07-09T19:53:01;18.23;;;11.77;;
70457;SDS011;57919;56.194;95.716;2023-07-09T20:13:31;19.23;;;12.23;;
70457;SDS011;57919;56.194;95.716;2023-07-09T20:23:36;17.80;;;10.63;;
70457;SDS011;57919;56.194;95.716;2023-07-09T20:33:38;18.67;;;10.23;;
70457;SDS011;57919;56.194;95.716;2023-07-09T20:43:41;15.13;;;10.10;;
70457;SDS011;57919;56.194;95.716;2023-07-09T20:53:42;15.57;;;10.23;;
70457;SDS011;57919;56.194;95.716;2023-07-09T21:03:44;17.67;;;9.80;;
70457;SDS011;57919;56.194;95.716;2023-07-09T21:13:46;15.23;;;9.90;;
70457;SDS011;57919;56.194;95.716;2023-07-09T21:23:48;14.17;;;9.30;;
70457;SDS011;57919;56.194;95.716;2023-07-09T21:33:50;15.83;;;9.67;;
70457;SDS011;57919;56.194;95.716;2023-07-09T21:43:52;14.90;;;9.43;;
70457;SDS011;57919;56.194;95.716;2023-07-09T21:53:54;12.90;;;8.90;;
70457;SDS011;57919;56.194;95.716;2023-07-09T22:03:56;13.00;;;8.43;;
70457;SDS011;57919;56.194;95.716;2023-07-09T22:13:58;11.57;;;7.97;;
70457;SDS011;57919;56.194;95.716;2023-07-09T22:24:01;13.10;;;8.47;;
70457;SDS011;57919;56.194;95.716;2023-07-09T22:44:36;11.53;;;7.13;;
70457;SDS011;57919;56.194;95.716;2023-07-09T22:54:38;11.60;;;7.90;;
70457;SDS011;57919;56.194;95.716;2023-07-09T23:04:40;16.63;;;7.67;;
70457;SDS011;57919;56.194;95.716;2023-07-09T23:14:42;17.03;;;8.90;;
70457;SDS011;57919;56.194;95.716;2023-07-09T23:24:43;15.35;;;8.68;;
70457;SDS011;57919;56.194;95.716;2023-07-09T23:34:45;13.57;;;8.83;;
70457;SDS011;57919;56.194;95.716;2023-07-09T23:44:47;11.83;;;7.33;;
70457;SDS011;57919;56.194;95.716;2023-07-09T23:54:49;15.17;;;7.37;;
